sensor_id;sensor_type;location;lat;lon;timestamp;pressure;altitude;pressure_sealevel;temperature;humidity
76460;BME280;65299;46.084;18.762;2023-07-24T00:01:57;100428.66;;;22.13;81.25
76460;BME280;65299;46.084;18.762;2023-07-24T00:04:58;100432.63;;;22.16;81.52
76460;BME280;65299;46.084;18.762;2023-07-24T00:07:58;100426.84;;;22.17;80.40
76460;BME280;65299;46.084;18.762;2023-07-24T00:10:59;100424.16;;;22.17;80.27
76460;BME280;65299;46.084;18.762;2023-07-24T00:13:59;100423.47;;;22.08;80.61
76460;BME280;65299;46.084;18.762;2023-07-24T00:17:00;100430.78;;;22.08;80.67
76460;BME280;65299;46.084;18.762;2023-07-24T00:20:00;100432.72;;;22.07;80.33
76460;BME280;65299;46.084;18.762;2023-07-24T00:23:01;100426.72;;;21.90;81.03
76460;BME280;65299;46.084;18.762;2023-07-24T00:26:01;100430.22;;;21.90;81.01
76460;BME280;65299;46.084;18.762;2023-07-24T00:29:02;100430.56;;;21.68;81.33
76460;BME280;65299;46.084;18.762;2023-07-24T00:32:03;100429.53;;;21.73;81.82
76460;BME280;65299;46.084;18.762;2023-07-24T00:35:03;100432.47;;;21.68;81.26
76460;BME280;65299;46.084;18.762;2023-07-24T00:38:04;100417.59;;;21.62;82.04
76460;BME280;65299;46.084;18.762;2023-07-24T00:41:04;100425.50;;;21.46;82.17
76460;BME280;65299;46.084;18.762;2023-07-24T00:44:05;100428.22;;;21.46;82.33
76460;BME280;65299;46.084;18.762;2023-07-24T00:47:05;100428.69;;;21.48;81.77
76460;BME280;65299;46.084;18.762;2023-07-24T00:50:07;100421.78;;;21.71;80.74
76460;BME280;65299;46.084;18.762;2023-07-24T00:53:07;100423.66;;;21.59;81.36
76460;BME280;65299;46.084;18.762;2023-07-24T00:56:08;100428.19;;;21.67;81.24
76460;BME280;65299;46.084;18.762;2023-07-24T00:59:10;100420.09;;;21.79;80.23
76460;BME280;65299;46.084;18.762;2023-07-24T01:02:11;100423.84;;;21.74;80.18
76460;BME280;65299;46.084;18.762;2023-07-24T01:05:13;100411.28;;;21.58;81.12
76460;BME280;65299;46.084;18.762;2023-07-24T01:08:14;100412.44;;;21.69;81.04
76460;BME280;65299;46.084;18.762;2023-07-24T01:14:29;100410.88;;;21.68;80.94
76460;BME280;65299;46.084;18.762;2023-07-24T01:17:34;100401.81;;;21.84;80.32
76460;BME280;65299;46.084;18.762;2023-07-24T01:20:43;100405.75;;;21.87;79.79
76460;BME280;65299;46.084;18.762;2023-07-24T01:26:54;100401.66;;;21.81;80.03
76460;BME280;65299;46.084;18.762;2023-07-24T01:29:54;100399.00;;;21.48;81.51
76460;BME280;65299;46.084;18.762;2023-07-24T01:32:55;100403.97;;;21.58;81.06
76460;BME280;65299;46.084;18.762;2023-07-24T01:35:58;100399.38;;;21.71;80.49
76460;BME280;65299;46.084;18.762;2023-07-24T01:38:59;100403.06;;;21.54;80.57
76460;BME280;65299;46.084;18.762;2023-07-24T01:42:01;100396.63;;;21.59;80.43
76460;BME280;65299;46.084;18.762;2023-07-24T01:45:03;100402.25;;;21.54;80.40
76460;BME280;65299;46.084;18.762;2023-07-24T01:48:06;100412.22;;;21.41;81.37
76460;BME280;65299;46.084;18.762;2023-07-24T01:51:06;100395.50;;;21.48;81.34
76460;BME280;65299;46.084;18.762;2023-07-24T01:54:06;100395.31;;;21.65;80.46
76460;BME280;65299;46.084;18.762;2023-07-24T01:57:07;100393.25;;;21.50;81.16
76460;BME280;65299;46.084;18.762;2023-07-24T02:00:08;100389.50;;;21.42;81.56
76460;BME280;65299;46.084;18.762;2023-07-24T02:03:08;100397.69;;;21.33;82.28
76460;BME280;65299;46.084;18.762;2023-07-24T02:06:09;100387.88;;;21.62;81.13
76460;BME280;65299;46.084;18.762;2023-07-24T02:09:10;100393.31;;;21.74;80.68
76460;BME280;65299;46.084;18.762;2023-07-24T02:12:10;100388.78;;;21.66;81.17
76460;BME280;65299;46.084;18.762;2023-07-24T02:15:11;100388.19;;;21.48;81.55
76460;BME280;65299;46.084;18.762;2023-07-24T02:18:11;100382.56;;;21.53;81.55
76460;BME280;65299;46.084;18.762;2023-07-24T02:21:11;100378.81;;;21.78;80.67
76460;BME280;65299;46.084;18.762;2023-07-24T02:24:12;100375.94;;;21.63;80.88
76460;BME280;65299;46.084;18.762;2023-07-24T02:27:13;100371.13;;;21.68;81.06
76460;BME280;65299;46.084;18.762;2023-07-24T02:30:24;100371.44;;;21.67;80.82
76460;BME280;65299;46.084;18.762;2023-07-24T02:33:24;100376.78;;;21.42;81.64
76460;BME280;65299;46.084;18.762;2023-07-24T02:36:25;100377.13;;;21.41;81.82
76460;BME280;65299;46.084;18.762;2023-07-24T02:39:25;100363.41;;;21.46;81.92
76460;BME280;65299;46.084;18.762;2023-07-24T02:42:25;100363.28;;;21.42;81.77
76460;BME280;65299;46.084;18.762;2023-07-24T02:45:26;100368.91;;;21.37;82.30
76460;BME280;65299;46.084;18.762;2023-07-24T02:48:26;100362.91;;;21.32;82.81
76460;BME280;65299;46.084;18.762;2023-07-24T02:51:26;100356.47;;;21.24;83.18
76460;BME280;65299;46.084;18.762;2023-07-24T02:54:27;100359.28;;;21.28;83.33
76460;BME280;65299;46.084;18.762;2023-07-24T02:57:27;100356.31;;;21.41;82.72
76460;BME280;65299;46.084;18.762;2023-07-24T03:00:28;100353.13;;;21.27;82.74
76460;BME280;65299;46.084;18.762;2023-07-24T03:03:28;100357.47;;;21.20;83.03
76460;BME280;65299;46.084;18.762;2023-07-24T03:06:28;100344.31;;;21.18;83.38
76460;BME280;65299;46.084;18.762;2023-07-24T03:09:29;100343.84;;;21.16;83.04
76460;BME280;65299;46.084;18.762;2023-07-24T03:12:29;100332.84;;;21.21;82.98
76460;BME280;65299;46.084;18.762;2023-07-24T03:15:30;100335.88;;;21.20;82.77
76460;BME280;65299;46.084;18.762;2023-07-24T03:18:30;100336.53;;;21.17;82.87
76460;BME280;65299;46.084;18.762;2023-07-24T03:21:30;100334.94;;;21.16;82.96
76460;BME280;65299;46.084;18.762;2023-07-24T03:24:31;100341.72;;;21.22;82.72
76460;BME280;65299;46.084;18.762;2023-07-24T03:27:31;100341.44;;;21.35;82.43
76460;BME280;65299;46.084;18.762;2023-07-24T03:30:32;100336.28;;;21.42;82.49
76460;BME280;65299;46.084;18.762;2023-07-24T03:33:35;100343.84;;;21.49;83.53
76460;BME280;65299;46.084;18.762;2023-07-24T03:36:35;100347.00;;;21.51;85.23
76460;BME280;65299;46.084;18.762;2023-07-24T03:39:36;100344.09;;;21.56;85.52
76460;BME280;65299;46.084;18.762;2023-07-24T03:42:37;100352.97;;;21.57;86.11
76460;BME280;65299;46.084;18.762;2023-07-24T03:45:37;100355.47;;;21.62;86.57
76460;BME280;65299;46.084;18.762;2023-07-24T03:48:38;100350.75;;;21.71;85.99
76460;BME280;65299;46.084;18.762;2023-07-24T03:51:38;100360.56;;;21.75;85.93
76460;BME280;65299;46.084;18.762;2023-07-24T03:54:39;100360.50;;;21.84;85.33
76460;BME280;65299;46.084;18.762;2023-07-24T03:57:39;100357.44;;;21.85;85.38
76460;BME280;65299;46.084;18.762;2023-07-24T04:00:39;100361.75;;;21.86;85.48
76460;BME280;65299;46.084;18.762;2023-07-24T04:03:40;100361.97;;;21.93;84.84
76460;BME280;65299;46.084;18.762;2023-07-24T04:06:41;100356.13;;;22.03;84.35
76460;BME280;65299;46.084;18.762;2023-07-24T04:09:41;100362.56;;;22.11;83.79
76460;BME280;65299;46.084;18.762;2023-07-24T04:12:41;100353.75;;;22.02;84.47
76460;BME280;65299;46.084;18.762;2023-07-24T04:15:42;100354.31;;;22.32;83.05
76460;BME280;65299;46.084;18.762;2023-07-24T04:18:44;100343.00;;;22.78;81.07
76460;BME280;65299;46.084;18.762;2023-07-24T04:21:44;100352.28;;;23.04;79.59
76460;BME280;65299;46.084;18.762;2023-07-24T04:24:45;100356.38;;;22.98;79.49
76460;BME280;65299;46.084;18.762;2023-07-24T04:27:45;100354.00;;;22.97;79.76
76460;BME280;65299;46.084;18.762;2023-07-24T04:30:46;100356.81;;;23.00;79.82
76460;BME280;65299;46.084;18.762;2023-07-24T04:33:46;100356.38;;;22.98;80.04
76460;BME280;65299;46.084;18.762;2023-07-24T04:36:47;100352.06;;;22.70;80.81
76460;BME280;65299;46.084;18.762;2023-07-24T04:39:47;100357.78;;;22.68;81.48
76460;BME280;65299;46.084;18.762;2023-07-24T04:42:48;100349.66;;;22.56;82.11
76460;BME280;65299;46.084;18.762;2023-07-24T04:45:48;100364.13;;;22.60;82.25
76460;BME280;65299;46.084;18.762;2023-07-24T04:48:48;100366.16;;;22.63;82.28
76460;BME280;65299;46.084;18.762;2023-07-24T04:51:49;100368.75;;;22.72;81.93
76460;BME280;65299;46.084;18.762;2023-07-24T04:54:50;100368.25;;;22.82;82.11
76460;BME280;65299;46.084;18.762;2023-07-24T04:57:50;100364.50;;;22.98;80.65
76460;BME280;65299;46.084;18.762;2023-07-24T05:00:51;100359.72;;;23.07;80.13
76460;BME280;65299;46.084;18.762;2023-07-24T05:03:52;100363.84;;;23.17;79.66
76460;BME280;65299;46.084;18.762;2023-07-24T05:06:52;100362.28;;;23.44;78.69
76460;BME280;65299;46.084;18.762;2023-07-24T05:09:53;100365.13;;;23.63;77.59
76460;BME280;65299;46.084;18.762;2023-07-24T05:12:53;100357.34;;;23.61;77.78
76460;BME280;65299;46.084;18.762;2023-07-24T05:15:57;100355.81;;;24.07;76.12
76460;BME280;65299;46.084;18.762;2023-07-24T05:18:58;100353.81;;;24.20;75.59
76460;BME280;65299;46.084;18.762;2023-07-24T05:21:58;100353.81;;;24.54;74.51
76460;BME280;65299;46.084;18.762;2023-07-24T05:24:59;100358.13;;;24.55;74.05
76460;BME280;65299;46.084;18.762;2023-07-24T05:27:59;100352.91;;;24.66;73.06
76460;BME280;65299;46.084;18.762;2023-07-24T05:31:02;100354.94;;;24.69;72.75
76460;BME280;65299;46.084;18.762;2023-07-24T05:34:03;100350.19;;;24.82;71.78
76460;BME280;65299;46.084;18.762;2023-07-24T05:37:05;100351.56;;;25.10;71.32
76460;BME280;65299;46.084;18.762;2023-07-24T05:40:05;100349.41;;;25.19;70.38
76460;BME280;65299;46.084;18.762;2023-07-24T05:43:06;100344.88;;;25.27;70.30
76460;BME280;65299;46.084;18.762;2023-07-24T05:46:06;100348.66;;;25.61;68.95
76460;BME280;65299;46.084;18.762;2023-07-24T05:49:07;100348.28;;;25.62;67.90
76460;BME280;65299;46.084;18.762;2023-07-24T05:52:07;100345.88;;;25.80;67.80
76460;BME280;65299;46.084;18.762;2023-07-24T05:55:08;100340.38;;;25.76;68.57
76460;BME280;65299;46.084;18.762;2023-07-24T05:58:09;100340.25;;;25.92;67.52
76460;BME280;65299;46.084;18.762;2023-07-24T06:01:10;100339.78;;;26.35;67.00
76460;BME280;65299;46.084;18.762;2023-07-24T06:04:10;100341.81;;;26.42;67.18
76460;BME280;65299;46.084;18.762;2023-07-24T06:07:10;100331.34;;;26.17;66.16
76460;BME280;65299;46.084;18.762;2023-07-24T06:10:11;100337.09;;;26.12;64.32
76460;BME280;65299;46.084;18.762;2023-07-24T06:13:11;100335.75;;;26.25;64.95
76460;BME280;65299;46.084;18.762;2023-07-24T06:16:12;100338.31;;;26.41;63.62
76460;BME280;65299;46.084;18.762;2023-07-24T06:19:14;100336.06;;;26.47;63.85
76460;BME280;65299;46.084;18.762;2023-07-24T06:22:15;100340.03;;;26.79;62.91
76460;BME280;65299;46.084;18.762;2023-07-24T06:25:15;100332.44;;;26.95;62.26
76460;BME280;65299;46.084;18.762;2023-07-24T06:28:16;100338.88;;;27.13;62.18
76460;BME280;65299;46.084;18.762;2023-07-24T06:31:16;100339.13;;;27.01;64.04
76460;BME280;65299;46.084;18.762;2023-07-24T06:34:16;100340.59;;;26.91;64.19
76460;BME280;65299;46.084;18.762;2023-07-24T06:37:17;100338.31;;;26.97;61.83
76460;BME280;65299;46.084;18.762;2023-07-24T06:40:17;100331.06;;;26.78;60.96
76460;BME280;65299;46.084;18.762;2023-07-24T06:43:18;100329.91;;;27.42;58.87
76460;BME280;65299;46.084;18.762;2023-07-24T06:46:18;100336.84;;;27.36;57.97
76460;BME280;65299;46.084;18.762;2023-07-24T06:49:19;100339.47;;;27.69;57.50
76460;BME280;65299;46.084;18.762;2023-07-24T06:52:19;100330.44;;;28.02;59.81
76460;BME280;65299;46.084;18.762;2023-07-24T06:55:20;100323.81;;;28.03;62.82
76460;BME280;65299;46.084;18.762;2023-07-24T06:58:20;100332.84;;;28.11;62.95
76460;BME280;65299;46.084;18.762;2023-07-24T07:01:21;100330.66;;;28.34;62.19
76460;BME280;65299;46.084;18.762;2023-07-24T07:04:21;100328.41;;;28.46;61.57
76460;BME280;65299;46.084;18.762;2023-07-24T07:07:22;100324.81;;;28.32;61.52
76460;BME280;65299;46.084;18.762;2023-07-24T07:10:22;100330.75;;;28.48;61.27
76460;BME280;65299;46.084;18.762;2023-07-24T07:13:23;100320.63;;;28.52;60.94
76460;BME280;65299;46.084;18.762;2023-07-24T07:16:23;100312.47;;;28.55;60.66
76460;BME280;65299;46.084;18.762;2023-07-24T07:19:23;100306.19;;;28.55;60.31
76460;BME280;65299;46.084;18.762;2023-07-24T07:22:24;100309.44;;;28.75;59.70
76460;BME280;65299;46.084;18.762;2023-07-24T07:25:24;100304.03;;;28.92;59.57
76460;BME280;65299;46.084;18.762;2023-07-24T07:28:25;100306.81;;;28.99;58.10
76460;BME280;65299;46.084;18.762;2023-07-24T07:31:25;100311.09;;;29.04;57.16
76460;BME280;65299;46.084;18.762;2023-07-24T07:34:25;100301.75;;;29.01;56.92
76460;BME280;65299;46.084;18.762;2023-07-24T07:37:26;100299.84;;;29.16;57.20
76460;BME280;65299;46.084;18.762;2023-07-24T07:40:26;100308.84;;;29.23;56.25
76460;BME280;65299;46.084;18.762;2023-07-24T07:43:27;100309.94;;;29.01;57.48
76460;BME280;65299;46.084;18.762;2023-07-24T07:46:28;100310.75;;;29.05;56.74
76460;BME280;65299;46.084;18.762;2023-07-24T07:49:29;100317.03;;;29.16;56.73
76460;BME280;65299;46.084;18.762;2023-07-24T07:52:29;100314.31;;;29.20;56.04
76460;BME280;65299;46.084;18.762;2023-07-24T07:55:30;100315.13;;;29.48;55.90
76460;BME280;65299;46.084;18.762;2023-07-24T07:58:30;100315.91;;;29.45;54.99
76460;BME280;65299;46.084;18.762;2023-07-24T08:01:31;100314.75;;;29.50;55.02
76460;BME280;65299;46.084;18.762;2023-07-24T08:04:31;100315.94;;;29.70;55.77
76460;BME280;65299;46.084;18.762;2023-07-24T08:07:32;100310.50;;;29.81;54.35
76460;BME280;65299;46.084;18.762;2023-07-24T08:10:32;100303.84;;;29.96;53.10
76460;BME280;65299;46.084;18.762;2023-07-24T08:13:33;100305.78;;;30.23;52.70
76460;BME280;65299;46.084;18.762;2023-07-24T08:16:34;100306.19;;;29.80;51.17
76460;BME280;65299;46.084;18.762;2023-07-24T08:19:34;100298.75;;;29.66;50.06
76460;BME280;65299;46.084;18.762;2023-07-24T08:22:35;100306.53;;;29.43;49.92
76460;BME280;65299;46.084;18.762;2023-07-24T08:25:35;100301.47;;;29.52;48.33
76460;BME280;65299;46.084;18.762;2023-07-24T08:28:35;100297.94;;;29.44;50.34
76460;BME280;65299;46.084;18.762;2023-07-24T08:31:36;100290.94;;;30.00;49.61
76460;BME280;65299;46.084;18.762;2023-07-24T08:34:36;100282.31;;;30.01;48.01
76460;BME280;65299;46.084;18.762;2023-07-24T08:37:37;100288.50;;;30.44;48.26
76460;BME280;65299;46.084;18.762;2023-07-24T08:40:37;100288.91;;;30.50;50.02
76460;BME280;65299;46.084;18.762;2023-07-24T08:43:41;100287.69;;;30.58;46.13
76460;BME280;65299;46.084;18.762;2023-07-24T08:46:42;100278.34;;;30.48;46.26
76460;BME280;65299;46.084;18.762;2023-07-24T08:49:46;100282.28;;;30.37;45.90
76460;BME280;65299;46.084;18.762;2023-07-24T08:52:47;100281.88;;;30.38;45.50
76460;BME280;65299;46.084;18.762;2023-07-24T08:55:48;100277.81;;;30.78;45.08
76460;BME280;65299;46.084;18.762;2023-07-24T08:58:52;100274.34;;;30.63;43.89
76460;BME280;65299;46.084;18.762;2023-07-24T09:01:52;100265.31;;;30.70;43.28
76460;BME280;65299;46.084;18.762;2023-07-24T09:04:53;100270.00;;;30.73;44.84
76460;BME280;65299;46.084;18.762;2023-07-24T09:07:54;100266.78;;;30.99;41.51
76460;BME280;65299;46.084;18.762;2023-07-24T09:10:55;100268.03;;;30.77;41.69
76460;BME280;65299;46.084;18.762;2023-07-24T09:13:55;100262.91;;;30.93;43.53
76460;BME280;65299;46.084;18.762;2023-07-24T09:20:03;100255.25;;;31.25;42.34
76460;BME280;65299;46.084;18.762;2023-07-24T09:23:07;100248.94;;;31.28;41.76
76460;BME280;65299;46.084;18.762;2023-07-24T09:26:09;100254.56;;;31.65;41.76
76460;BME280;65299;46.084;18.762;2023-07-24T09:29:09;100248.78;;;31.53;40.74
76460;BME280;65299;46.084;18.762;2023-07-24T09:32:24;100252.59;;;31.66;43.88
76460;BME280;65299;46.084;18.762;2023-07-24T09:35:24;100249.91;;;31.59;42.61
76460;BME280;65299;46.084;18.762;2023-07-24T09:38:28;100247.75;;;31.33;42.11
76460;BME280;65299;46.084;18.762;2023-07-24T09:41:29;100236.59;;;31.57;41.26
76460;BME280;65299;46.084;18.762;2023-07-24T09:44:31;100247.66;;;31.47;41.40
76460;BME280;65299;46.084;18.762;2023-07-24T09:47:31;100240.28;;;31.81;40.65
76460;BME280;65299;46.084;18.762;2023-07-24T09:50:32;100247.75;;;31.80;40.42
76460;BME280;65299;46.084;18.762;2023-07-24T09:56:34;100222.91;;;31.98;40.52
76460;BME280;65299;46.084;18.762;2023-07-24T09:59:35;100213.16;;;31.90;39.82
76460;BME280;65299;46.084;18.762;2023-07-24T10:02:36;100216.28;;;32.29;40.13
76460;BME280;65299;46.084;18.762;2023-07-24T10:05:37;100214.47;;;31.75;40.68
76460;BME280;65299;46.084;18.762;2023-07-24T10:08:39;100199.09;;;31.81;41.05
76460;BME280;65299;46.084;18.762;2023-07-24T10:11:39;100206.91;;;31.86;41.31
76460;BME280;65299;46.084;18.762;2023-07-24T10:14:40;100213.53;;;31.92;40.39
76460;BME280;65299;46.084;18.762;2023-07-24T10:17:44;100209.00;;;32.12;40.00
76460;BME280;65299;46.084;18.762;2023-07-24T10:20:44;100219.22;;;32.12;39.89
76460;BME280;65299;46.084;18.762;2023-07-24T10:23:46;100210.53;;;32.17;39.93
76460;BME280;65299;46.084;18.762;2023-07-24T10:26:49;100204.47;;;32.62;40.08
76460;BME280;65299;46.084;18.762;2023-07-24T10:30:04;100199.59;;;32.43;38.00
76460;BME280;65299;46.084;18.762;2023-07-24T10:33:12;100197.16;;;32.52;39.19
76460;BME280;65299;46.084;18.762;2023-07-24T10:36:17;100196.69;;;32.57;39.35
76460;BME280;65299;46.084;18.762;2023-07-24T10:39:19;100199.81;;;32.59;39.36
76460;BME280;65299;46.084;18.762;2023-07-24T10:42:22;100186.28;;;32.72;39.93
76460;BME280;65299;46.084;18.762;2023-07-24T10:45:23;100195.78;;;32.67;41.40
76460;BME280;65299;46.084;18.762;2023-07-24T10:48:25;100194.31;;;32.59;41.32
76460;BME280;65299;46.084;18.762;2023-07-24T10:51:26;100192.38;;;32.56;39.77
76460;BME280;65299;46.084;18.762;2023-07-24T10:54:26;100170.56;;;32.73;40.36
76460;BME280;65299;46.084;18.762;2023-07-24T10:57:27;100178.75;;;32.49;39.77
76460;BME280;65299;46.084;18.762;2023-07-24T11:00:28;100170.16;;;32.47;40.70
76460;BME280;65299;46.084;18.762;2023-07-24T11:03:28;100171.97;;;32.57;39.09
76460;BME280;65299;46.084;18.762;2023-07-24T11:06:29;100160.09;;;32.64;38.40
76460;BME280;65299;46.084;18.762;2023-07-24T11:09:36;100163.53;;;32.38;39.86
76460;BME280;65299;46.084;18.762;2023-07-24T11:12:38;100156.81;;;32.99;41.26
76460;BME280;65299;46.084;18.762;2023-07-24T11:15:39;100147.03;;;32.72;39.29
76460;BME280;65299;46.084;18.762;2023-07-24T11:18:47;100134.16;;;33.38;39.23
76460;BME280;65299;46.084;18.762;2023-07-24T11:21:48;100140.66;;;33.51;38.36
76460;BME280;65299;46.084;18.762;2023-07-24T11:24:49;100132.66;;;33.33;37.70
76460;BME280;65299;46.084;18.762;2023-07-24T11:27:49;100110.56;;;33.60;37.24
76460;BME280;65299;46.084;18.762;2023-07-24T11:30:50;100111.78;;;33.36;39.09
76460;BME280;65299;46.084;18.762;2023-07-24T11:33:52;100110.44;;;33.67;36.11
76460;BME280;65299;46.084;18.762;2023-07-24T11:36:53;100109.56;;;33.27;38.88
76460;BME280;65299;46.084;18.762;2023-07-24T11:39:58;100094.28;;;33.50;38.14
76460;BME280;65299;46.084;18.762;2023-07-24T11:42:59;100101.19;;;33.77;37.77
76460;BME280;65299;46.084;18.762;2023-07-24T11:46:00;100092.88;;;33.61;37.82
76460;BME280;65299;46.084;18.762;2023-07-24T11:49:00;100073.88;;;33.01;37.85
76460;BME280;65299;46.084;18.762;2023-07-24T11:52:06;100071.94;;;33.44;37.72
76460;BME280;65299;46.084;18.762;2023-07-24T11:55:07;100086.28;;;33.75;38.50
76460;BME280;65299;46.084;18.762;2023-07-24T11:58:08;100077.56;;;33.99;36.97
76460;BME280;65299;46.084;18.762;2023-07-24T12:01:08;100081.28;;;33.89;39.14
76460;BME280;65299;46.084;18.762;2023-07-24T12:04:09;100071.75;;;33.94;37.17
76460;BME280;65299;46.084;18.762;2023-07-24T12:07:10;100062.13;;;34.38;36.06
76460;BME280;65299;46.084;18.762;2023-07-24T12:10:12;100063.28;;;34.56;35.70
76460;BME280;65299;46.084;18.762;2023-07-24T12:13:12;100079.38;;;34.06;39.16
76460;BME280;65299;46.084;18.762;2023-07-24T12:16:13;100092.31;;;34.25;36.44
76460;BME280;65299;46.084;18.762;2023-07-24T12:19:13;100094.56;;;34.14;36.94
76460;BME280;65299;46.084;18.762;2023-07-24T12:22:14;100088.53;;;34.19;35.33
76460;BME280;65299;46.084;18.762;2023-07-24T12:25:14;100086.03;;;34.08;35.93
76460;BME280;65299;46.084;18.762;2023-07-24T12:28:20;100075.34;;;34.10;38.43
76460;BME280;65299;46.084;18.762;2023-07-24T12:31:21;100064.13;;;33.82;36.67
76460;BME280;65299;46.084;18.762;2023-07-24T12:34:21;100071.38;;;34.11;37.91
76460;BME280;65299;46.084;18.762;2023-07-24T12:37:22;100070.53;;;34.50;37.41
76460;BME280;65299;46.084;18.762;2023-07-24T12:40:22;100068.38;;;34.06;34.83
76460;BME280;65299;46.084;18.762;2023-07-24T12:43:23;100065.53;;;33.70;36.50
76460;BME280;65299;46.084;18.762;2023-07-24T12:46:23;100056.94;;;34.23;38.20
76460;BME280;65299;46.084;18.762;2023-07-24T12:49:23;100054.16;;;34.07;36.87
76460;BME280;65299;46.084;18.762;2023-07-24T12:52:25;100038.66;;;34.13;36.64
76460;BME280;65299;46.084;18.762;2023-07-24T12:55:25;100038.22;;;34.51;36.61
76460;BME280;65299;46.084;18.762;2023-07-24T12:58:27;100028.34;;;34.34;35.81
76460;BME280;65299;46.084;18.762;2023-07-24T13:01:28;100024.22;;;34.42;36.31
76460;BME280;65299;46.084;18.762;2023-07-24T13:04:29;100015.97;;;34.74;35.32
76460;BME280;65299;46.084;18.762;2023-07-24T13:07:29;100021.06;;;34.75;35.50
76460;BME280;65299;46.084;18.762;2023-07-24T13:10:30;100005.97;;;34.48;35.32
76460;BME280;65299;46.084;18.762;2023-07-24T13:13:33;99986.53;;;34.22;35.41
76460;BME280;65299;46.084;18.762;2023-07-24T13:16:33;99992.16;;;34.51;36.30
76460;BME280;65299;46.084;18.762;2023-07-24T13:19:34;99991.88;;;33.94;34.92
76460;BME280;65299;46.084;18.762;2023-07-24T13:22:34;99993.75;;;34.16;36.23
76460;BME280;65299;46.084;18.762;2023-07-24T13:25:34;99991.69;;;34.20;36.00
76460;BME280;65299;46.084;18.762;2023-07-24T13:28:35;99993.81;;;34.29;35.98
76460;BME280;65299;46.084;18.762;2023-07-24T13:31:35;99985.41;;;34.52;35.21
76460;BME280;65299;46.084;18.762;2023-07-24T13:34:37;99981.84;;;34.68;34.51
76460;BME280;65299;46.084;18.762;2023-07-24T13:37:37;99978.25;;;34.55;33.89
76460;BME280;65299;46.084;18.762;2023-07-24T13:40:38;99971.34;;;34.79;33.29
76460;BME280;65299;46.084;18.762;2023-07-24T13:43:38;99980.75;;;34.65;35.75
76460;BME280;65299;46.084;18.762;2023-07-24T13:46:41;99982.16;;;34.57;35.38
76460;BME280;65299;46.084;18.762;2023-07-24T13:49:59;99966.34;;;34.58;34.63
76460;BME280;65299;46.084;18.762;2023-07-24T13:53:03;99966.69;;;34.60;34.60
76460;BME280;65299;46.084;18.762;2023-07-24T13:56:05;99953.91;;;34.98;34.41
76460;BME280;65299;46.084;18.762;2023-07-24T13:59:05;99937.25;;;34.57;35.98
76460;BME280;65299;46.084;18.762;2023-07-24T14:02:06;99938.28;;;34.47;35.43
76460;BME280;65299;46.084;18.762;2023-07-24T14:05:07;99912.06;;;33.90;35.42
76460;BME280;65299;46.084;18.762;2023-07-24T14:08:08;99908.50;;;34.25;35.38
76460;BME280;65299;46.084;18.762;2023-07-24T14:11:09;99908.81;;;33.95;35.89
76460;BME280;65299;46.084;18.762;2023-07-24T14:14:09;99894.22;;;34.14;37.07
76460;BME280;65299;46.084;18.762;2023-07-24T14:17:09;99890.41;;;33.92;35.35
76460;BME280;65299;46.084;18.762;2023-07-24T14:20:11;99875.59;;;34.35;35.03
76460;BME280;65299;46.084;18.762;2023-07-24T14:23:12;99868.16;;;34.48;35.65
76460;BME280;65299;46.084;18.762;2023-07-24T14:26:12;99865.72;;;34.66;35.13
76460;BME280;65299;46.084;18.762;2023-07-24T14:29:13;99866.09;;;35.09;34.62
76460;BME280;65299;46.084;18.762;2023-07-24T14:32:13;99847.06;;;34.98;35.80
76460;BME280;65299;46.084;18.762;2023-07-24T14:35:15;99831.63;;;35.01;35.57
76460;BME280;65299;46.084;18.762;2023-07-24T14:38:16;99813.50;;;34.87;36.23
76460;BME280;65299;46.084;18.762;2023-07-24T14:41:16;99826.78;;;34.35;37.69
76460;BME280;65299;46.084;18.762;2023-07-24T14:44:16;99806.06;;;34.14;38.51
76460;BME280;65299;46.084;18.762;2023-07-24T14:47:17;99811.50;;;33.86;38.57
76460;BME280;65299;46.084;18.762;2023-07-24T14:50:17;99802.88;;;33.84;39.12
76460;BME280;65299;46.084;18.762;2023-07-24T14:53:18;99815.50;;;33.97;38.33
76460;BME280;65299;46.084;18.762;2023-07-24T14:56:19;99829.22;;;34.01;38.13
76460;BME280;65299;46.084;18.762;2023-07-24T14:59:20;99818.84;;;36.29;36.44
76460;BME280;65299;46.084;18.762;2023-07-24T15:02:20;99830.25;;;36.87;33.34
76460;BME280;65299;46.084;18.762;2023-07-24T15:05:21;99834.13;;;35.62;36.58
76460;BME280;65299;46.084;18.762;2023-07-24T15:08:21;99809.28;;;34.83;36.88
76460;BME280;65299;46.084;18.762;2023-07-24T15:11:22;99786.28;;;37.20;33.45
76460;BME280;65299;46.084;18.762;2023-07-24T15:14:23;99789.75;;;38.18;29.98
76460;BME280;65299;46.084;18.762;2023-07-24T15:17:25;99793.84;;;39.37;28.60
76460;BME280;65299;46.084;18.762;2023-07-24T15:20:25;99792.78;;;39.67;27.76
76460;BME280;65299;46.084;18.762;2023-07-24T15:23:26;99792.44;;;40.21;27.13
76460;BME280;65299;46.084;18.762;2023-07-24T15:26:26;99783.66;;;39.99;28.31
76460;BME280;65299;46.084;18.762;2023-07-24T15:29:27;99784.41;;;39.11;28.12
76460;BME280;65299;46.084;18.762;2023-07-24T15:32:27;99776.50;;;38.76;29.28
76460;BME280;65299;46.084;18.762;2023-07-24T15:35:28;99787.44;;;38.16;28.97
76460;BME280;65299;46.084;18.762;2023-07-24T15:38:28;99773.00;;;37.36;30.43
76460;BME280;65299;46.084;18.762;2023-07-24T15:41:29;99781.91;;;36.36;32.02
76460;BME280;65299;46.084;18.762;2023-07-24T15:44:31;99779.09;;;36.48;32.01
76460;BME280;65299;46.084;18.762;2023-07-24T15:47:31;99774.13;;;36.87;31.36
76460;BME280;65299;46.084;18.762;2023-07-24T15:50:31;99777.91;;;35.18;33.37